Terminal Aerodrome Forecast
Issued by NWS

Home | Current Version | Previous Version | Text Only | Print | Product List | Glossary On
Versions: 1 2 3 4 5 6 7 8 9 10 11 12 13 14 15 16 17 18 19 20 21 22 23 24 25 26 27 28 29 30 31 32
468
FTUS41 KOKX 230301 AAA
TAFTEB
TAF AMD
KTEB 230301Z 2303/2406 07005KT 1SM BR OVC003
     FM230400 09003KT 1/2SM FG OVC003
      TEMPO 2305/2309 2SM BR SCT003 OVC070
     FM230900 VRB03KT 1SM -SHRA BR OVC005 WS020/21040KT
     FM231100 16006KT 3SM SHRA BR OVC008 WS020/20040KT
     FM231900 21011KT 4SM -SHRA BR BKN022
     FM232000 23011KT P6SM VCSH BKN035
     FM232300 26010KT P6SM SCT070=

USA.gov is the U.S. government's official web portal to all federal, state and local government web resources and services.